Time;durP1;ratioP1;P1;durP2;ratioP2;P2;SDS_P1;SDS_P2;PMS_P1;PMS_P2;Temp;Humidity;BMP_temperature;BMP_pressure;BME280_temperature;BME280_humidity;BME280_pressure;Samples;Min_cycle;Max_cycle;Signal;HPM_P1;HPM_P2
2021/02/14 00:04:41;;;;;;;1.10;1.10;;;;;;;-8.55;73.30;98842.16;299395;217;63004;-55
2021/02/14 00:09:42;;;;;;;1.10;1.10;;;;;;;-8.49;73.76;98836.41;299395;238;63009;-55
2021/02/14 00:14:43;;;;;;;1.10;1.10;;;;;;;-8.42;74.76;98840.22;299394;199;63995;-54
2021/02/14 00:19:44;;;;;;;1.10;1.10;;;;;;;-8.44;73.07;98834.25;299395;224;63009;-55
2021/02/14 00:24:47;;;;;;;1.10;1.10;;;;;;;-8.49;72.91;98839.88;299395;351;63005;-56
2021/02/14 00:29:50;;;;;;;1.00;1.00;;;;;;;-8.53;72.42;98827.09;299395;219;63009;-54
2021/02/14 00:34:59;;;;;;;1.00;1.00;;;;;;;-8.62;72.95;98822.56;299395;228;63004;-55
2021/02/14 00:40:00;;;;;;;1.10;1.10;;;;;;;-8.66;74.21;98811.47;299395;196;63009;-54
2021/02/14 00:45:02;;;;;;;1.00;1.00;;;;;;;-8.76;74.86;98807.09;299395;229;63005;-66
2021/02/14 00:50:04;;;;;;;1.10;1.10;;;;;;;-8.83;74.94;98818.09;299395;216;63008;-55
2021/02/14 00:55:17;;;;;;;1.10;1.10;;;;;;;-8.78;74.69;98819.53;299395;364;63004;-55
2021/02/14 01:00:18;;;;;;;1.10;1.10;;;;;;;-8.95;75.38;98813.81;299395;231;63009;-55
2021/02/14 01:05:19;;;;;;;1.10;1.10;;;;;;;-8.76;74.81;98817.63;299395;270;63004;-67
2021/02/14 01:10:20;;;;;;;1.10;1.10;;;;;;;-8.50;74.14;98818.94;299395;233;63009;-54
2021/02/14 01:15:21;;;;;;;1.00;1.00;;;;;;;-8.48;75.30;98817.84;299395;238;63005;-55
2021/02/14 01:20:22;;;;;;;1.00;1.00;;;;;;;-8.50;75.93;98818.94;299395;196;63008;-55
2021/02/14 01:25:24;;;;;;;1.10;1.10;;;;;;;-8.41;74.89;98818.19;299395;238;63004;-55
2021/02/14 01:30:25;;;;;;;1.00;1.00;;;;;;;-8.47;74.09;98813.44;299395;214;63009;-55
2021/02/14 01:35:27;;;;;;;1.00;1.00;;;;;;;-8.47;74.10;98797.63;299395;236;63004;-55
2021/02/14 01:40:27;;;;;;;1.10;1.10;;;;;;;-8.43;74.13;98801.69;299395;246;63009;-55
2021/02/14 01:45:28;;;;;;;1.10;1.10;;;;;;;-8.29;73.66;98790.78;299395;202;63020;-54
2021/02/14 01:50:29;;;;;;;1.20;1.20;;;;;;;-8.17;73.32;98789.78;299395;217;63008;-53
2021/02/14 01:55:30;;;;;;;1.10;1.10;;;;;;;-8.08;73.12;98782.06;299395;206;63004;-54
2021/02/14 02:00:32;;;;;;;1.05;1.05;;;;;;;-7.96;72.51;98781.84;299395;196;63009;-54
2021/02/14 02:05:34;;;;;;;1.00;1.00;;;;;;;-7.95;70.57;98772.16;299395;268;63005;-54
2021/02/14 02:10:35;;;;;;;1.00;1.00;;;;;;;-7.82;70.20;98767.50;299395;209;63009;-55
2021/02/14 02:15:37;;;;;;;1.10;1.10;;;;;;;-7.80;70.90;98765.56;299395;216;63005;-55
2021/02/14 02:20:39;;;;;;;1.10;1.10;;;;;;;-7.93;70.18;98755.25;299395;197;63009;-56
2021/02/14 02:25:40;;;;;;;1.00;1.00;;;;;;;-7.85;70.52;98751.97;299395;251;63004;-53
2021/02/14 02:30:42;;;;;;;1.00;1.00;;;;;;;-7.80;70.69;98750.59;299395;198;63009;-55
2021/02/14 02:35:43;;;;;;;1.00;1.00;;;;;;;-7.76;69.56;98751.19;299395;203;63005;-55
2021/02/14 02:40:44;;;;;;;1.00;1.00;;;;;;;-7.75;69.69;98755.47;299395;219;63009;-54
2021/02/14 02:45:45;;;;;;;1.00;1.00;;;;;;;-7.84;70.24;98754.47;299395;583;63005;-54
2021/02/14 02:50:46;;;;;;;1.00;1.00;;;;;;;-7.84;70.27;98748.34;299395;198;63009;-55
2021/02/14 02:55:47;;;;;;;1.02;1.02;;;;;;;-7.82;70.12;98751.69;299395;202;63004;-54
2021/02/14 03:00:48;;;;;;;1.10;1.10;;;;;;;-7.73;69.97;98745.63;299395;796;63019;-56
2021/02/14 03:05:50;;;;;;;1.20;1.20;;;;;;;-7.76;69.90;98745.91;299395;263;63005;-54
2021/02/14 03:10:52;;;;;;;1.10;1.10;;;;;;;-7.73;69.79;98756.19;299395;352;63009;-55
2021/02/14 03:15:53;;;;;;;1.00;1.00;;;;;;;-7.74;69.88;98759.78;299395;231;63004;-54
2021/02/14 03:21:02;;;;;;;1.00;1.00;;;;;;;-7.76;69.67;98767.00;299395;231;63009;-54
2021/02/14 03:26:04;;;;;;;1.10;1.10;;;;;;;-7.83;70.23;98776.38;299395;209;63004;-55
2021/02/14 03:31:05;;;;;;;1.10;1.10;;;;;;;-7.86;70.08;98774.00;299395;229;63009;-55
2021/02/14 03:36:06;;;;;;;1.20;1.20;;;;;;;-8.09;71.41;98780.41;299395;269;63005;-55
2021/02/14 03:41:07;;;;;;;1.10;1.10;;;;;;;-8.13;72.34;98778.03;299395;202;63008;-55
2021/02/14 03:46:09;;;;;;;1.00;1.00;;;;;;;-8.08;72.79;98775.00;299395;286;63004;-54
2021/02/14 03:51:10;;;;;;;1.05;1.05;;;;;;;-8.05;72.75;98787.09;299395;434;63020;-54
2021/02/14 03:56:11;;;;;;;1.10;1.10;;;;;;;-8.22;73.49;98786.69;299395;208;63004;-56
2021/02/14 04:01:12;;;;;;;1.10;1.10;;;;;;;-8.28;73.52;98787.19;299395;225;63009;-55
2021/02/14 04:06:13;;;;;;;1.10;1.10;;;;;;;-8.60;74.11;98786.44;299395;296;63005;-55
2021/02/14 04:11:14;;;;;;;1.10;1.10;;;;;;;-8.80;74.45;98794.19;299395;197;63008;-56
2021/02/14 04:16:15;;;;;;;1.10;1.10;;;;;;;-8.68;73.53;98778.34;299394;198;64004;-54
2021/02/14 04:21:16;;;;;;;1.10;1.10;;;;;;;-8.37;72.80;98782.75;299395;276;63009;-55
2021/02/14 04:26:17;;;;;;;1.00;1.00;;;;;;;-8.21;72.98;98788.38;299395;221;63004;-56
2021/02/14 04:31:18;;;;;;;1.00;1.00;;;;;;;-8.20;73.48;98789.19;299395;209;63009;-54
2021/02/14 04:36:19;;;;;;;1.10;1.10;;;;;;;-8.31;74.14;98779.56;299395;274;63005;-54
2021/02/14 04:41:22;;;;;;;1.00;1.00;;;;;;;-8.34;73.99;98785.12;299395;202;63019;-68
2021/02/14 04:46:22;;;;;;;1.10;1.10;;;;;;;-8.33;73.70;98780.72;299395;203;63004;-54
2021/02/14 04:51:24;;;;;;;1.00;1.00;;;;;;;-8.15;72.52;98769.41;299395;216;63009;-54
2021/02/14 04:56:28;;;;;;;1.00;1.00;;;;;;;-8.10;72.87;98771.66;299395;301;63005;-54
2021/02/14 05:01:29;;;;;;;1.05;1.05;;;;;;;-8.35;73.56;98767.66;299395;486;63009;-55
2021/02/14 05:06:30;;;;;;;1.00;1.00;;;;;;;-8.55;74.46;98768.47;299395;612;63010;-54
2021/02/14 05:11:31;;;;;;;1.10;1.10;;;;;;;-8.57;74.67;98770.41;299395;572;63009;-54
2021/02/14 05:16:32;;;;;;;1.17;1.17;;;;;;;-8.78;75.08;98777.44;299395;205;63004;-55
2021/02/14 05:21:33;;;;;;;1.10;1.10;;;;;;;-8.90;74.61;98785.34;299395;244;63009;-54
2021/02/14 05:26:34;;;;;;;1.10;1.10;;;;;;;-8.81;74.06;98800.41;299395;208;63005;-53
2021/02/14 05:31:35;;;;;;;1.10;1.10;;;;;;;-8.72;73.40;98803.25;299395;231;63009;-54
2021/02/14 05:36:36;;;;;;;1.10;1.10;;;;;;;-8.58;73.66;98798.50;299395;219;63011;-57
2021/02/14 05:41:37;;;;;;;1.10;1.10;;;;;;;-8.59;73.75;98811.78;299395;219;63009;-67
2021/02/14 05:46:43;;;;;;;1.12;1.12;;;;;;;-8.66;74.78;98814.09;299395;230;63004;-54
2021/02/14 05:51:44;;;;;;;1.08;1.08;;;;;;;-8.75;74.41;98801.69;299395;278;63009;-68
2021/02/14 05:56:45;;;;;;;1.00;1.00;;;;;;;-8.77;75.03;98789.63;299395;206;63005;-55
2021/02/14 06:01:51;;;;;;;1.10;1.10;;;;;;;-8.83;75.21;98797.06;299395;214;63020;-54
2021/02/14 06:06:52;;;;;;;1.10;1.10;;;;;;;-8.89;74.50;98794.09;299395;232;63005;-55
2021/02/14 06:11:58;;;;;;;1.10;1.10;;;;;;;-9.09;74.63;98795.72;299395;205;63022;-54
2021/02/14 06:16:59;;;;;;;1.10;1.10;;;;;;;-9.01;75.19;98790.66;299395;240;63004;-67
2021/02/14 06:22:21;;;;;;;1.10;1.10;;;;;;;-9.08;75.05;98794.75;299395;233;63009;-55
2021/02/14 06:27:43;;;;;;;1.20;1.20;;;;;;;-9.14;75.81;98792.59;299395;259;63005;-53
2021/02/14 06:32:47;;;;;;;1.10;1.10;;;;;;;-9.25;76.24;98811.84;299395;215;63008;-54
2021/02/14 06:37:52;;;;;;;1.20;1.20;;;;;;;-9.24;76.15;98812.69;299417;301;63009;-66
2021/02/14 06:43:12;;;;;;;1.10;1.10;;;;;;;-9.41;75.64;98821.09;299395;234;63009;-67
2021/02/14 06:48:15;;;;;;;1.10;1.10;;;;;;;-9.51;76.39;98821.81;299395;231;63004;-55
2021/02/14 06:53:18;;;;;;;1.10;1.10;;;;;;;-9.30;75.51;98807.91;299395;226;63009;-54
2021/02/14 06:58:21;;;;;;;1.10;1.10;;;;;;;-8.63;71.32;98810.38;299395;211;63005;-68
2021/02/14 07:03:23;;;;;;;5.07;4.87;;;;;;;-8.21;70.60;98817.31;299417;225;63019;-55
2021/02/14 07:08:25;;;;;;;1.10;1.10;;;;;;;-7.96;68.47;98815.25;299373;230;63008;-56
2021/02/14 07:13:28;;;;;;;1.10;1.10;;;;;;;-7.77;68.10;98823.28;299396;211;63018;-54
2021/02/14 07:18:32;;;;;;;1.10;1.10;;;;;;;-7.67;68.06;98829.47;299440;268;63005;-55
2021/02/14 07:23:34;;;;;;;1.10;1.10;;;;;;;-7.58;67.49;98833.94;299418;226;63009;-66
2021/02/14 07:28:55;;;;;;;1.10;1.10;;;;;;;-7.41;67.30;98844.84;299396;203;63005;-67
2021/02/14 07:34:09;;;;;;;1.10;1.10;;;;;;;-7.54;68.42;98859.06;299396;443;63009;-55
2021/02/14 07:39:55;;;;;;;1.10;1.10;;;;;;;-7.46;68.05;98859.25;299378;265;125004;-54
2021/02/14 07:45:05;;;;;;;1.00;1.00;;;;;;;-7.32;67.85;98873.91;299396;202;63009;-55
2021/02/14 07:50:06;;;;;;;1.00;1.00;;;;;;;-7.11;66.73;98885.22;299396;223;63005;-55
2021/02/14 07:55:07;;;;;;;1.10;1.10;;;;;;;-6.82;66.27;98882.66;299396;225;63009;-54
2021/02/14 08:00:34;;;;;;;1.00;1.00;;;;;;;-6.50;63.90;98863.97;299397;218;63000;-54
2021/02/14 08:05:48;;;;;;;1.00;1.00;;;;;;;-6.06;61.64;98855.66;299397;206;63009;-54
2021/02/14 08:11:03;;;;;;;1.03;1.03;;;;;;;-5.66;59.59;98837.75;299418;756;63005;-55
2021/02/14 08:16:13;;;;;;;1.20;1.20;;;;;;;-5.40;58.48;98837.94;299418;841;63009;-55
2021/02/14 08:21:14;;;;;;;1.00;1.00;;;;;;;-5.17;56.61;98823.34;299396;676;63005;-65
2021/02/14 08:26:15;;;;;;;0.93;0.93;;;;;;;-4.94;55.38;98822.97;299396;341;63009;-55
2021/02/14 08:31:32;;;;;;;1.00;1.00;;;;;;;-4.78;54.32;98826.63;299396;593;63004;-54
2021/02/14 08:36:33;;;;;;;1.00;1.00;;;;;;;-4.36;52.96;98828.72;299396;220;63009;-55
2021/02/14 08:41:34;;;;;;;1.10;1.10;;;;;;;-3.83;51.74;98826.03;299395;215;64005;-56
2021/02/14 08:46:39;;;;;;;1.00;1.00;;;;;;;-3.54;51.08;98831.03;299396;334;63008;-54
2021/02/14 08:51:40;;;;;;;0.90;0.90;;;;;;;-3.05;50.98;98828.63;299397;229;63004;-55
2021/02/14 08:56:42;;;;;;;0.90;0.90;;;;;;;-2.71;49.62;98802.84;299397;196;63009;-55
2021/02/14 09:02:01;;;;;;;1.10;1.10;;;;;;;-2.56;46.52;98795.09;299395;212;63004;-54
2021/02/14 09:07:11;;;;;;;0.90;0.90;;;;;;;-2.41;47.50;98792.59;299395;196;63009;-56
2021/02/14 09:12:19;;;;;;;0.90;0.90;;;;;;;-2.20;46.45;98794.78;299395;210;63005;-55
2021/02/14 09:17:20;;;;;;;0.90;0.90;;;;;;;-2.26;47.57;98809.59;299395;215;63009;-54
2021/02/14 09:22:22;;;;;;;0.93;0.93;;;;;;;-2.58;48.03;98806.88;299395;212;63004;-55
2021/02/14 09:27:37;;;;;;;1.00;1.00;;;;;;;-2.71;49.04;98808.16;299395;324;63009;-53
2021/02/14 09:32:38;;;;;;;1.00;1.00;;;;;;;-2.82;51.70;98824.41;299417;211;63005;-55
2021/02/14 09:38:00;;;;;;;0.90;0.90;;;;;;;-2.90;48.65;98820.91;299395;218;63009;-55
2021/02/14 09:43:08;;;;;;;0.90;0.90;;;;;;;-2.97;49.90;98839.28;299395;203;63005;-53
2021/02/14 09:48:11;;;;;;;1.00;1.00;;;;;;;-2.94;50.45;98840.78;299394;238;63009;-60
2021/02/14 09:53:24;;;;;;;0.90;0.90;;;;;;;-2.89;50.75;98835.84;299395;308;63004;-54
2021/02/14 09:58:32;;;;;;;0.98;0.98;;;;;;;-2.81;48.85;98842.03;299395;202;63009;-53
2021/02/14 10:03:33;;;;;;;0.90;0.90;;;;;;;-2.72;47.65;98832.22;299395;206;63005;-59
2021/02/14 10:08:35;;;;;;;1.00;1.00;;;;;;;-2.72;47.82;98833.06;299395;204;63008;-54
2021/02/14 10:13:36;;;;;;;1.00;1.00;;;;;;;-2.62;47.58;98837.41;299395;320;63004;-58
2021/02/14 10:18:36;;;;;;;1.00;1.00;;;;;;;-2.52;47.60;98838.12;299395;202;63009;-59
2021/02/14 10:23:37;;;;;;;0.90;0.90;;;;;;;-2.43;46.87;98839.81;299395;370;63004;-57
2021/02/14 10:28:40;;;;;;;0.90;0.90;;;;;;;-2.12;46.05;98835.53;299395;202;63009;-57
2021/02/14 10:33:41;;;;;;;0.90;0.90;;;;;;;-1.53;45.36;98830.00;299395;211;63016;-54
2021/02/14 10:38:42;;;;;;;0.90;0.90;;;;;;;-1.09;42.50;98823.25;299395;257;63008;-58
2021/02/14 10:43:43;;;;;;;0.98;0.98;;;;;;;-0.97;42.70;98826.34;299395;224;63004;-54
2021/02/14 10:48:45;;;;;;;1.12;1.12;;;;;;;-1.16;42.42;98818.78;299395;220;63009;-60
2021/02/14 10:53:47;;;;;;;0.90;0.90;;;;;;;-1.14;43.67;98811.44;299395;246;63004;-59
2021/02/14 10:58:53;;;;;;;0.90;0.90;;;;;;;-1.16;43.05;98810.78;299395;210;63009;-58
2021/02/14 11:09:16;;;;;;;0.80;0.80;;;;;;;-1.07;44.12;98828.41;299395;206;63009;-54
2021/02/14 11:14:17;;;;;;;0.90;0.90;;;;;;;-1.03;41.35;98816.38;299395;220;63005;-56
2021/02/14 11:19:18;;;;;;;0.90;0.90;;;;;;;-0.98;40.35;98807.88;299395;318;63009;-54
2021/02/14 11:24:24;;;;;;;0.90;0.90;;;;;;;-0.99;39.93;98807.06;299395;231;63012;-53
2021/02/14 11:29:26;;;;;;;0.90;0.90;;;;;;;-1.01;41.94;98820.53;299395;346;63009;-54
2021/02/14 11:34:27;;;;;;;0.90;0.90;;;;;;;-0.93;41.83;98814.34;299395;353;63005;-57
2021/02/14 11:39:48;;;;;;;0.90;0.90;;;;;;;-0.73;40.83;98804.94;299395;214;63009;-56
2021/02/14 11:44:51;;;;;;;0.90;0.90;;;;;;;-0.58;40.80;98805.03;299395;289;63004;-56
2021/02/14 11:49:52;;;;;;;0.82;0.82;;;;;;;-0.43;40.85;98802.44;299395;206;63009;-55
2021/02/14 11:54:53;;;;;;;0.90;0.90;;;;;;;-0.37;39.22;98791.91;299395;247;63014;-55
2021/02/14 11:59:56;;;;;;;0.90;0.90;;;;;;;-0.25;38.08;98786.97;299395;272;63008;-55
2021/02/14 12:04:57;;;;;;;0.90;0.90;;;;;;;-0.31;38.87;98786.84;299395;285;63004;-55
2021/02/14 12:09:59;;;;;;;0.90;0.90;;;;;;;-0.29;37.66;98779.50;299395;207;63009;-56
2021/02/14 12:15:00;;;;;;;0.90;0.90;;;;;;;-0.12;37.35;98779.22;299395;208;63004;-54
2021/02/14 12:20:01;;;;;;;0.90;0.90;;;;;;;-0.07;39.66;98786.69;299395;202;63009;-55
2021/02/14 12:25:02;;;;;;;0.80;0.80;;;;;;;-0.03;37.37;98783.47;299395;198;63013;-55
2021/02/14 12:30:05;;;;;;;0.90;0.90;;;;;;;0.02;39.41;98782.09;299395;249;63009;-56
2021/02/14 12:35:08;;;;;;;0.90;0.90;;;;;;;0.18;36.66;98779.28;299395;237;63004;-55
2021/02/14 12:40:10;;;;;;;0.80;0.80;;;;;;;0.23;38.21;98784.94;299395;232;63009;-56
2021/02/14 12:45:13;;;;;;;0.80;0.80;;;;;;;0.43;39.20;98786.06;299395;226;63004;-56
2021/02/14 12:50:15;;;;;;;0.80;0.80;;;;;;;0.39;36.24;98766.06;299395;204;63009;-56
2021/02/14 12:55:15;;;;;;;0.90;0.90;;;;;;;0.48;35.84;98754.28;299395;224;63005;-55
2021/02/14 13:00:18;;;;;;;0.80;0.80;;;;;;;0.42;37.67;98749.69;299395;217;63019;-54
2021/02/14 13:05:19;;;;;;;0.90;0.90;;;;;;;0.48;34.07;98738.25;299395;226;63004;-54
2021/02/14 13:10:20;;;;;;;0.80;0.80;;;;;;;0.49;36.34;98753.28;299395;236;63009;-54
2021/02/14 13:15:21;;;;;;;0.80;0.80;;;;;;;0.49;34.65;98734.59;299395;211;63009;-54
2021/02/14 13:20:22;;;;;;;0.80;0.80;;;;;;;0.60;34.44;98734.13;299395;262;63009;-55
2021/02/14 13:25:25;;;;;;;0.90;0.90;;;;;;;0.58;36.01;98736.16;299395;206;63005;-55
2021/02/14 13:30:26;;;;;;;0.90;0.90;;;;;;;0.58;34.68;98722.81;299395;270;63008;-55
2021/02/14 13:35:28;;;;;;;0.80;0.80;;;;;;;0.66;34.50;98713.87;299395;287;63004;-53
2021/02/14 13:40:30;;;;;;;0.80;0.80;;;;;;;0.74;35.05;98708.41;299395;203;63009;-53
2021/02/14 13:45:31;;;;;;;0.80;0.80;;;;;;;0.76;35.18;98702.88;299395;202;63004;-53
2021/02/14 13:50:32;;;;;;;0.80;0.80;;;;;;;0.86;34.59;98703.41;299395;231;63009;-52
2021/02/14 13:55:33;;;;;;;0.90;0.90;;;;;;;0.87;32.33;98689.03;299395;212;63005;-53
2021/02/14 14:00:36;;;;;;;0.80;0.80;;;;;;;0.89;35.05;98708.41;299395;235;63008;-53
2021/02/14 14:06:12;;;;;;;0.80;0.80;;;;;;;0.99;32.89;98685.72;299395;240;63004;-53
2021/02/14 14:11:01;;;;;;;0.80;0.80;;;;;;;1.00;32.67;98673.19;299395;197;63025;-53
2021/02/14 14:16:03;;;;;;;0.90;0.90;;;;;;;0.90;32.51;98680.66;299395;224;63005;-54
2021/02/14 14:21:06;;;;;;;0.90;0.90;;;;;;;1.17;32.61;98671.09;299395;283;63009;-53
2021/02/14 14:26:07;;;;;;;0.80;0.80;;;;;;;1.24;32.12;98675.50;299395;212;63005;-54
2021/02/14 14:31:08;;;;;;;0.80;0.80;;;;;;;1.20;31.76;98671.53;299395;229;63009;-53
2021/02/14 14:36:09;;;;;;;0.80;0.80;;;;;;;0.99;31.98;98674.19;299395;212;63004;-55
2021/02/14 14:41:12;;;;;;;0.80;0.80;;;;;;;0.84;32.82;98678.72;299394;196;64009;-55
2021/02/14 14:46:14;;;;;;;0.80;0.80;;;;;;;0.88;31.19;98666.66;299395;244;63005;-53
2021/02/14 14:51:15;;;;;;;0.80;0.80;;;;;;;0.98;33.51;98675.22;299395;212;63009;-53
2021/02/14 14:56:16;;;;;;;0.80;0.80;;;;;;;1.06;31.84;98661.69;299395;208;63005;-53
2021/02/14 15:01:18;;;;;;;0.80;0.80;;;;;;;1.14;30.68;98648.22;299395;227;63018;-62
2021/02/14 15:06:19;;;;;;;0.80;0.80;;;;;;;1.22;31.30;98650.78;299395;203;63004;-62
2021/02/14 15:11:20;;;;;;;0.80;0.80;;;;;;;1.15;30.31;98644.53;299395;248;63020;-54
2021/02/14 15:16:21;;;;;;;0.80;0.80;;;;;;;1.10;29.89;98636.25;299395;234;63005;-53
2021/02/14 15:21:22;;;;;;;0.80;0.80;;;;;;;1.04;29.90;98631.66;299395;258;63018;-53
2021/02/14 15:26:23;;;;;;;0.80;0.80;;;;;;;0.94;31.49;98642.69;299395;220;63004;-53
2021/02/14 15:31:24;;;;;;;0.80;0.80;;;;;;;0.86;32.72;98645.47;299395;234;63009;-53
2021/02/14 15:36:25;;;;;;;0.80;0.80;;;;;;;0.73;31.89;98633.78;299395;233;63004;-54
2021/02/14 15:41:27;;;;;;;0.80;0.80;;;;;;;0.57;32.84;98635.66;299395;218;63009;-54
2021/02/14 15:46:28;;;;;;;0.80;0.80;;;;;;;0.43;33.04;98628.50;299395;258;63005;-54
2021/02/14 15:51:29;;;;;;;0.80;0.80;;;;;;;0.27;35.76;98639.38;299395;236;63004;-53
2021/02/14 15:56:30;;;;;;;0.80;0.80;;;;;;;0.11;36.26;98650.22;299395;219;63004;-53
2021/02/14 16:01:34;;;;;;;0.80;0.80;;;;;;;0.07;34.43;98632.91;299395;215;63009;-53
2021/02/14 16:06:39;;;;;;;0.80;0.80;;;;;;;-0.09;33.71;98634.75;299395;236;63010;-53
2021/02/14 16:11:40;;;;;;;;;;;;;;;-0.34;34.06;98630.66;299996;983;6004;-62
2021/02/14 16:16:41;;;;;;;0.90;0.90;;;;;;;-0.52;35.31;98640.84;299400;235;63009;-53
2021/02/14 16:21:43;;;;;;;0.90;0.90;;;;;;;-0.80;34.96;98641.41;299395;203;63004;-53
2021/02/14 16:26:44;;;;;;;0.90;0.90;;;;;;;-0.85;34.51;98629.59;299395;282;63009;-53
2021/02/14 16:31:45;;;;;;;0.90;0.90;;;;;;;-1.06;36.07;98627.59;299395;207;63005;-52
2021/02/14 16:36:48;;;;;;;0.90;0.90;;;;;;;-1.17;35.97;98626.16;299395;230;63009;-53
2021/02/14 16:41:51;;;;;;;0.80;0.80;;;;;;;-1.28;36.61;98621.22;299395;198;63004;-52
2021/02/14 16:46:52;;;;;;;0.90;0.90;;;;;;;-1.38;36.72;98626.75;299395;301;63009;-53
2021/02/14 16:51:54;;;;;;;0.90;0.90;;;;;;;-1.55;37.70;98630.53;299395;204;63005;-53
2021/02/14 16:56:55;;;;;;;0.90;0.90;;;;;;;-1.59;37.88;98623.88;299395;264;63009;-51
2021/02/14 17:01:56;;;;;;;0.90;0.90;;;;;;;-1.65;38.27;98623.75;299395;338;63005;-53
2021/02/14 17:06:57;;;;;;;0.90;0.90;;;;;;;-1.56;37.02;98618.22;299395;230;63009;-52
2021/02/14 17:11:58;;;;;;;0.93;0.93;;;;;;;-1.74;39.12;98620.31;299395;203;63004;-52
2021/02/14 17:16:59;;;;;;;0.90;0.90;;;;;;;-1.68;38.09;98608.94;299395;312;63009;-52
2021/02/14 17:22:00;;;;;;;0.95;0.95;;;;;;;-1.75;38.32;98608.00;299395;202;63005;-53
2021/02/14 17:27:01;;;;;;;0.90;0.90;;;;;;;-1.76;38.41;98606.34;299395;253;63009;-52
2021/02/14 17:32:05;;;;;;;0.80;0.80;;;;;;;-1.83;38.24;98600.88;299395;243;63005;-53
2021/02/14 17:37:06;;;;;;;0.90;0.90;;;;;;;-1.95;39.44;98604.06;299395;205;63009;-53
2021/02/14 17:42:11;;;;;;;0.90;0.90;;;;;;;-1.87;39.15;98604.06;299395;266;63004;-53
2021/02/14 17:47:12;;;;;;;0.80;0.80;;;;;;;-2.05;39.74;98601.59;299417;244;63018;-52
2021/02/14 17:52:14;;;;;;;0.90;0.90;;;;;;;-2.13;39.75;98615.78;299395;245;63005;-52
2021/02/14 17:57:15;;;;;;;0.80;0.80;;;;;;;-2.23;40.15;98615.13;299395;216;63009;-52
2021/02/14 18:02:16;;;;;;;0.90;0.90;;;;;;;-2.23;40.70;98617.78;299395;213;63005;-53
2021/02/14 18:07:17;;;;;;;0.90;0.90;;;;;;;-2.28;41.00;98617.47;299395;219;63005;-51
2021/02/14 18:12:18;;;;;;;0.90;0.90;;;;;;;-2.36;42.46;98626.28;299395;217;63004;-52
2021/02/14 18:17:19;;;;;;;0.90;0.90;;;;;;;-2.45;42.92;98621.16;299395;222;63009;-63
2021/02/14 18:22:20;;;;;;;0.88;0.88;;;;;;;-2.61;43.38;98613.19;299395;333;63005;-63
2021/02/14 18:27:22;;;;;;;0.90;0.90;;;;;;;-2.66;43.51;98608.38;299395;243;63009;-55
2021/02/14 18:32:23;;;;;;;0.90;0.90;;;;;;;-2.61;43.25;98611.38;299395;206;63010;-54
2021/02/14 18:37:24;;;;;;;0.90;0.90;;;;;;;-2.73;44.47;98618.84;299395;221;63009;-52
2021/02/14 18:42:25;;;;;;;0.90;0.90;;;;;;;-2.76;44.27;98627.16;299395;222;63004;-53
2021/02/14 18:47:26;;;;;;;0.90;0.90;;;;;;;-2.83;45.20;98631.47;299395;227;63009;-53
2021/02/14 18:52:27;;;;;;;0.90;0.90;;;;;;;-2.93;46.13;98640.59;299395;197;63005;-54
2021/02/14 18:57:28;;;;;;;0.90;0.90;;;;;;;-3.07;46.82;98640.25;299395;240;63009;-53
2021/02/14 19:02:29;;;;;;;0.90;0.90;;;;;;;-3.13;47.68;98646.22;299395;222;63008;-52
2021/02/14 19:07:32;;;;;;;0.90;0.90;;;;;;;-3.23;48.96;98631.44;299395;209;63009;-53
2021/02/14 19:12:35;;;;;;;0.90;0.90;;;;;;;-3.33;49.83;98636.03;299395;213;63004;-54
2021/02/14 19:17:37;;;;;;;0.90;0.90;;;;;;;-3.33;50.70;98642.19;299395;205;63009;-53
2021/02/14 19:22:38;;;;;;;0.90;0.90;;;;;;;-3.38;49.58;98637.34;299395;197;63005;-53
2021/02/14 19:27:39;;;;;;;0.90;0.90;;;;;;;-3.44;51.13;98630.03;299395;196;63021;-52
2021/02/14 19:32:40;;;;;;;0.90;0.90;;;;;;;-3.53;52.74;98631.03;299395;202;63004;-52
2021/02/14 19:37:42;;;;;;;0.90;0.90;;;;;;;-3.60;51.01;98619.41;299395;200;63009;-53
2021/02/14 19:42:43;;;;;;;0.90;0.90;;;;;;;-3.63;53.08;98618.88;299395;202;63004;-52
2021/02/14 19:47:47;;;;;;;0.90;0.90;;;;;;;-3.49;50.65;98615.63;299396;316;63009;-52
2021/02/14 19:52:49;;;;;;;1.10;1.10;;;;;;;-3.64;53.36;98612.75;299418;212;63005;-52
2021/02/14 19:57:51;;;;;;;1.10;1.10;;;;;;;-3.73;55.30;98609.22;299396;234;63008;-52
2021/02/14 20:02:53;;;;;;;0.90;0.90;;;;;;;-3.80;57.09;98612.69;299396;304;63004;-53
2021/02/14 20:07:55;;;;;;;0.90;0.90;;;;;;;-3.86;53.30;98592.13;299396;214;63009;-52
2021/02/14 20:12:56;;;;;;;0.90;0.90;;;;;;;-3.98;55.82;98578.31;299396;208;63004;-52
2021/02/14 20:17:57;;;;;;;0.90;0.90;;;;;;;-3.76;53.07;98576.88;299396;268;63009;-52
2021/02/14 20:22:58;;;;;;;0.90;0.90;;;;;;;-3.83;54.38;98589.97;299396;196;63005;-52
2021/02/14 20:27:58;;;;;;;0.90;0.90;;;;;;;-3.88;54.05;98594.09;299396;290;63008;-65
2021/02/14 20:33:00;;;;;;;1.00;1.00;;;;;;;-3.83;55.22;98605.06;299396;205;64004;-53
2021/02/14 20:38:05;;;;;;;0.90;0.90;;;;;;;-3.92;55.55;98609.50;299396;202;63009;-53
2021/02/14 20:43:06;;;;;;;0.90;0.90;;;;;;;-3.93;57.02;98604.34;299395;206;64005;-54
2021/02/14 20:48:08;;;;;;;0.90;0.90;;;;;;;-3.93;55.07;98585.78;299396;377;63009;-52
2021/02/14 20:53:09;;;;;;;0.90;0.90;;;;;;;-3.79;55.52;98586.00;299396;230;63005;-53
2021/02/14 20:58:10;;;;;;;0.90;0.90;;;;;;;-3.71;54.65;98580.72;299396;363;63009;-52
2021/02/14 21:03:12;;;;;;;0.90;0.90;;;;;;;-3.68;51.15;98568.97;299396;231;63004;-53
2021/02/14 21:08:13;;;;;;;0.90;0.90;;;;;;;-3.75;51.07;98567.94;299396;211;63009;-53
2021/02/14 21:13:14;;;;;;;0.90;0.90;;;;;;;-3.58;53.36;98585.56;299396;217;63005;-52
2021/02/14 21:18:15;;;;;;;0.90;0.90;;;;;;;-3.54;53.20;98588.75;299396;233;63009;-53
2021/02/14 21:23:16;;;;;;;0.90;0.90;;;;;;;-3.70;52.93;98597.47;299397;218;63005;-53
2021/02/14 21:28:16;;;;;;;0.90;0.90;;;;;;;-3.71;54.58;98595.81;299397;197;63009;-52
2021/02/14 21:33:17;;;;;;;0.90;0.90;;;;;;;-3.73;53.96;98576.56;299396;232;63004;-52
2021/02/14 21:38:21;;;;;;;0.90;0.90;;;;;;;-3.61;52.44;98572.62;299395;202;63009;-52
2021/02/14 21:43:22;;;;;;;0.90;0.90;;;;;;;-3.60;53.89;98565.50;299417;218;63005;-53
2021/02/14 21:48:23;;;;;;;0.90;0.90;;;;;;;-3.56;50.33;98548.28;299395;224;63009;-52
2021/02/14 21:53:24;;;;;;;0.90;0.90;;;;;;;-3.50;49.60;98550.28;299395;223;63009;-65
2021/02/14 21:58:25;;;;;;;0.90;0.90;;;;;;;-3.48;51.63;98558.91;299395;277;63009;-54
2021/02/14 22:03:26;;;;;;;0.90;0.90;;;;;;;-3.58;54.02;98559.03;299395;232;63008;-55
2021/02/14 22:08:29;;;;;;;0.90;0.90;;;;;;;-3.51;53.01;98553.91;299395;232;63009;-53
2021/02/14 22:13:31;;;;;;;0.90;0.90;;;;;;;-3.63;53.21;98564.00;299395;197;63005;-55
2021/02/14 22:18:32;;;;;;;0.90;0.90;;;;;;;-3.61;54.15;98564.66;299395;215;63009;-65
2021/02/14 22:23:33;;;;;;;0.90;0.90;;;;;;;-3.62;52.30;98560.34;299395;232;63004;-53
2021/02/14 22:28:34;;;;;;;0.90;0.90;;;;;;;-3.60;51.88;98571.62;299395;203;63009;-55
2021/02/14 22:33:35;;;;;;;0.90;0.90;;;;;;;-3.69;53.58;98571.78;299395;196;63010;-54
2021/02/14 22:38:36;;;;;;;1.00;1.00;;;;;;;-3.57;48.72;98539.47;299395;198;63009;-54
2021/02/14 22:43:37;;;;;;;0.90;0.90;;;;;;;-3.69;51.47;98540.78;299395;204;63005;-53
2021/02/14 22:48:38;;;;;;;0.95;0.95;;;;;;;-3.67;52.35;98537.97;299395;197;63008;-54
2021/02/14 22:53:39;;;;;;;0.90;0.90;;;;;;;-3.69;53.99;98545.25;299395;241;63004;-55
2021/02/14 22:58:40;;;;;;;0.90;0.90;;;;;;;-3.72;49.52;98533.12;299395;259;63009;-54
2021/02/14 23:03:41;;;;;;;1.67;1.67;;;;;;;-3.71;54.19;98561.31;299395;212;63004;-64
2021/02/14 23:08:42;;;;;;;0.90;0.90;;;;;;;-3.81;54.84;98574.72;299395;210;63009;-64
2021/02/14 23:13:44;;;;;;;0.90;0.90;;;;;;;-3.85;51.45;98567.25;299395;294;63005;-53
2021/02/14 23:18:45;;;;;;;0.90;0.90;;;;;;;-3.91;51.95;98567.91;299395;214;63008;-53
2021/02/14 23:23:46;;;;;;;0.90;0.90;;;;;;;-3.93;54.92;98569.88;299394;225;64018;-54
2021/02/14 23:28:47;;;;;;;0.90;0.90;;;;;;;-3.90;54.51;98561.59;299395;191;63009;-53
2021/02/14 23:33:49;;;;;;;0.90;0.90;;;;;;;-3.90;53.70;98564.25;299395;197;63018;-54
2021/02/14 23:38:53;;;;;;;0.90;0.90;;;;;;;-3.89;53.41;98550.84;299395;196;63009;-53
2021/02/14 23:43:54;;;;;;;0.90;0.90;;;;;;;-3.88;50.39;98546.38;299417;196;63005;-54
2021/02/14 23:48:55;;;;;;;0.90;0.90;;;;;;;-4.00;51.53;98531.72;299395;349;63009;-53
2021/02/14 23:53:56;;;;;;;0.90;0.90;;;;;;;-3.91;51.13;98526.31;299395;233;63004;-54